sensor_id;sensor_type;location;lat;lon;timestamp;P1;durP1;ratioP1;P2;durP2;ratioP2
59587;SDS011;45412;54.472;18.464;2022-09-20T00:01:49;6.30;;;1.30;;
59587;SDS011;45412;54.472;18.464;2022-09-20T00:04:37;6.20;;;1.30;;
59587;SDS011;45412;54.472;18.464;2022-09-20T00:07:25;6.10;;;1.40;;
59587;SDS011;45412;54.472;18.464;2022-09-20T00:10:13;6.00;;;1.30;;
59587;SDS011;45412;54.472;18.464;2022-09-20T00:13:01;5.50;;;1.60;;
59587;SDS011;45412;54.472;18.464;2022-09-20T00:15:53;5.00;;;1.30;;
59587;SDS011;45412;54.472;18.464;2022-09-20T00:18:41;6.10;;;1.40;;
59587;SDS011;45412;54.472;18.464;2022-09-20T00:21:31;5.30;;;1.20;;
59587;SDS011;45412;54.472;18.464;2022-09-20T00:24:21;6.00;;;1.20;;
59587;SDS011;45412;54.472;18.464;2022-09-20T00:27:09;5.00;;;1.20;;
59587;SDS011;45412;54.472;18.464;2022-09-20T00:29:57;4.90;;;1.20;;
59587;SDS011;45412;54.472;18.464;2022-09-20T00:32:45;6.50;;;1.50;;
59587;SDS011;45412;54.472;18.464;2022-09-20T00:35:32;5.70;;;1.50;;
59587;SDS011;45412;54.472;18.464;2022-09-20T00:38:20;5.40;;;1.40;;
59587;SDS011;45412;54.472;18.464;2022-09-20T00:41:07;6.80;;;1.50;;
59587;SDS011;45412;54.472;18.464;2022-09-20T00:43:56;6.20;;;1.60;;
59587;SDS011;45412;54.472;18.464;2022-09-20T00:46:46;5.90;;;1.80;;
59587;SDS011;45412;54.472;18.464;2022-09-20T00:49:33;5.50;;;1.70;;
59587;SDS011;45412;54.472;18.464;2022-09-20T00:52:24;6.50;;;1.40;;
59587;SDS011;45412;54.472;18.464;2022-09-20T00:55:14;5.90;;;1.60;;
59587;SDS011;45412;54.472;18.464;2022-09-20T00:58:03;5.80;;;1.80;;
59587;SDS011;45412;54.472;18.464;2022-09-20T01:00:53;6.60;;;1.50;;
59587;SDS011;45412;54.472;18.464;2022-09-20T01:03:43;5.80;;;1.60;;
59587;SDS011;45412;54.472;18.464;2022-09-20T01:06:32;5.30;;;1.60;;
59587;SDS011;45412;54.472;18.464;2022-09-20T01:09:21;6.10;;;1.60;;
59587;SDS011;45412;54.472;18.464;2022-09-20T01:12:12;6.00;;;1.70;;
59587;SDS011;45412;54.472;18.464;2022-09-20T01:15:06;5.70;;;1.70;;
59587;SDS011;45412;54.472;18.464;2022-09-20T01:17:56;6.30;;;1.40;;
59587;SDS011;45412;54.472;18.464;2022-09-20T01:20:46;6.70;;;1.60;;
59587;SDS011;45412;54.472;18.464;2022-09-20T01:23:50;6.60;;;1.80;;
59587;SDS011;45412;54.472;18.464;2022-09-20T01:30:20;6.10;;;1.90;;
59587;SDS011;45412;54.472;18.464;2022-09-20T01:33:49;6.40;;;1.90;;
59587;SDS011;45412;54.472;18.464;2022-09-20T01:36:57;6.20;;;1.80;;
59587;SDS011;45412;54.472;18.464;2022-09-20T01:43:39;7.10;;;1.70;;
59587;SDS011;45412;54.472;18.464;2022-09-20T01:46:30;6.60;;;1.60;;
59587;SDS011;45412;54.472;18.464;2022-09-20T01:49:39;5.70;;;1.80;;
59587;SDS011;45412;54.472;18.464;2022-09-20T02:03:07;8.50;;;2.10;;
59587;SDS011;45412;54.472;18.464;2022-09-20T02:19:52;7.40;;;1.80;;
59587;SDS011;45412;54.472;18.464;2022-09-20T02:22:58;6.10;;;1.70;;
59587;SDS011;45412;54.472;18.464;2022-09-20T02:43:17;4.20;;;1.10;;
59587;SDS011;45412;54.472;18.464;2022-09-20T02:46:54;5.50;;;1.40;;
59587;SDS011;45412;54.472;18.464;2022-09-20T02:53:34;5.50;;;1.40;;
59587;SDS011;45412;54.472;18.464;2022-09-20T02:56:50;6.30;;;1.60;;
59587;SDS011;45412;54.472;18.464;2022-09-20T02:59:53;5.60;;;1.60;;
59587;SDS011;45412;54.472;18.464;2022-09-20T03:06:14;6.20;;;1.60;;
59587;SDS011;45412;54.472;18.464;2022-09-20T03:26:55;5.80;;;1.60;;
59587;SDS011;45412;54.472;18.464;2022-09-20T03:33:49;5.60;;;1.70;;
59587;SDS011;45412;54.472;18.464;2022-09-20T03:46:46;6.90;;;1.40;;
59587;SDS011;45412;54.472;18.464;2022-09-20T04:00:28;5.80;;;1.30;;
59587;SDS011;45412;54.472;18.464;2022-09-20T04:16:43;6.50;;;1.50;;
59587;SDS011;45412;54.472;18.464;2022-09-20T04:19:50;7.10;;;1.40;;
59587;SDS011;45412;54.472;18.464;2022-09-20T04:22:52;6.40;;;1.20;;
59587;SDS011;45412;54.472;18.464;2022-09-20T04:25:46;5.40;;;1.20;;
59587;SDS011;45412;54.472;18.464;2022-09-20T04:28:47;5.30;;;1.50;;
59587;SDS011;45412;54.472;18.464;2022-09-20T04:32:12;5.10;;;1.40;;
59587;SDS011;45412;54.472;18.464;2022-09-20T04:39:14;4.70;;;1.40;;
59587;SDS011;45412;54.472;18.464;2022-09-20T04:42:52;8.80;;;1.60;;
59587;SDS011;45412;54.472;18.464;2022-09-20T04:56:40;6.60;;;1.40;;
59587;SDS011;45412;54.472;18.464;2022-09-20T05:00:06;5.70;;;1.70;;
59587;SDS011;45412;54.472;18.464;2022-09-20T05:37:01;6.50;;;1.50;;
59587;SDS011;45412;54.472;18.464;2022-09-20T05:47:17;7.30;;;1.50;;
59587;SDS011;45412;54.472;18.464;2022-09-20T06:00:20;6.80;;;1.60;;
59587;SDS011;45412;54.472;18.464;2022-09-20T06:03:34;6.70;;;1.60;;
59587;SDS011;45412;54.472;18.464;2022-09-20T06:13:35;7.90;;;2.00;;
59587;SDS011;45412;54.472;18.464;2022-09-20T06:20:26;8.40;;;2.90;;
59587;SDS011;45412;54.472;18.464;2022-09-20T06:23:14;10.30;;;3.30;;
59587;SDS011;45412;54.472;18.464;2022-09-20T06:26:24;8.70;;;3.20;;
59587;SDS011;45412;54.472;18.464;2022-09-20T06:29:28;8.10;;;3.00;;
59587;SDS011;45412;54.472;18.464;2022-09-20T06:32:19;6.70;;;2.50;;
59587;SDS011;45412;54.472;18.464;2022-09-20T06:35:07;8.10;;;2.20;;
59587;SDS011;45412;54.472;18.464;2022-09-20T06:41:43;6.10;;;1.60;;
59587;SDS011;45412;54.472;18.464;2022-09-20T06:44:31;7.60;;;1.50;;
59587;SDS011;45412;54.472;18.464;2022-09-20T06:47:19;5.90;;;1.40;;
59587;SDS011;45412;54.472;18.464;2022-09-20T06:50:14;5.30;;;1.40;;
59587;SDS011;45412;54.472;18.464;2022-09-20T06:53:03;5.20;;;1.40;;
59587;SDS011;45412;54.472;18.464;2022-09-20T06:55:52;6.90;;;1.90;;
59587;SDS011;45412;54.472;18.464;2022-09-20T06:58:41;5.50;;;1.50;;
59587;SDS011;45412;54.472;18.464;2022-09-20T07:01:29;6.00;;;1.50;;
59587;SDS011;45412;54.472;18.464;2022-09-20T07:04:18;4.50;;;1.10;;
59587;SDS011;45412;54.472;18.464;2022-09-20T07:07:06;5.20;;;1.10;;
59587;SDS011;45412;54.472;18.464;2022-09-20T07:09:56;5.60;;;1.30;;
59587;SDS011;45412;54.472;18.464;2022-09-20T07:12:44;4.90;;;1.20;;
59587;SDS011;45412;54.472;18.464;2022-09-20T07:15:33;4.80;;;1.20;;
59587;SDS011;45412;54.472;18.464;2022-09-20T07:18:21;3.80;;;0.90;;
59587;SDS011;45412;54.472;18.464;2022-09-20T07:21:16;4.20;;;0.90;;
59587;SDS011;45412;54.472;18.464;2022-09-20T07:24:05;6.40;;;1.30;;
59587;SDS011;45412;54.472;18.464;2022-09-20T07:27:00;4.80;;;1.10;;
59587;SDS011;45412;54.472;18.464;2022-09-20T07:29:50;4.40;;;1.10;;
59587;SDS011;45412;54.472;18.464;2022-09-20T07:32:39;4.60;;;1.00;;
59587;SDS011;45412;54.472;18.464;2022-09-20T07:35:27;4.40;;;0.80;;
59587;SDS011;45412;54.472;18.464;2022-09-20T07:38:15;4.60;;;1.00;;
59587;SDS011;45412;54.472;18.464;2022-09-20T07:41:03;5.00;;;1.10;;
59587;SDS011;45412;54.472;18.464;2022-09-20T07:43:51;5.00;;;1.10;;
59587;SDS011;45412;54.472;18.464;2022-09-20T07:46:39;4.50;;;0.90;;
59587;SDS011;45412;54.472;18.464;2022-09-20T07:49:28;4.70;;;1.10;;
59587;SDS011;45412;54.472;18.464;2022-09-20T07:52:18;5.00;;;0.90;;
59587;SDS011;45412;54.472;18.464;2022-09-20T07:55:07;4.40;;;1.10;;
59587;SDS011;45412;54.472;18.464;2022-09-20T07:57:55;5.00;;;1.10;;
59587;SDS011;45412;54.472;18.464;2022-09-20T08:00:42;4.90;;;1.20;;
59587;SDS011;45412;54.472;18.464;2022-09-20T08:03:31;5.50;;;1.20;;
59587;SDS011;45412;54.472;18.464;2022-09-20T08:06:19;5.10;;;1.20;;
59587;SDS011;45412;54.472;18.464;2022-09-20T08:09:08;5.30;;;1.10;;
59587;SDS011;45412;54.472;18.464;2022-09-20T08:11:57;4.20;;;0.80;;
59587;SDS011;45412;54.472;18.464;2022-09-20T08:14:45;5.50;;;0.90;;
59587;SDS011;45412;54.472;18.464;2022-09-20T08:17:32;4.90;;;1.00;;
59587;SDS011;45412;54.472;18.464;2022-09-20T08:20:20;5.00;;;0.90;;
59587;SDS011;45412;54.472;18.464;2022-09-20T08:23:07;4.70;;;0.90;;
59587;SDS011;45412;54.472;18.464;2022-09-20T08:26:12;3.90;;;0.70;;
59587;SDS011;45412;54.472;18.464;2022-09-20T08:29:04;5.70;;;0.90;;
59587;SDS011;45412;54.472;18.464;2022-09-20T08:31:52;4.50;;;0.80;;
59587;SDS011;45412;54.472;18.464;2022-09-20T08:34:44;3.80;;;0.70;;
59587;SDS011;45412;54.472;18.464;2022-09-20T08:37:37;5.00;;;0.90;;
59587;SDS011;45412;54.472;18.464;2022-09-20T08:40:25;3.70;;;0.80;;
59587;SDS011;45412;54.472;18.464;2022-09-20T08:43:16;3.20;;;0.60;;
59587;SDS011;45412;54.472;18.464;2022-09-20T08:46:12;3.50;;;0.70;;
59587;SDS011;45412;54.472;18.464;2022-09-20T08:49:04;4.80;;;0.80;;
59587;SDS011;45412;54.472;18.464;2022-09-20T08:51:57;4.50;;;0.90;;
59587;SDS011;45412;54.472;18.464;2022-09-20T08:54:47;4.30;;;0.80;;
59587;SDS011;45412;54.472;18.464;2022-09-20T08:57:34;5.50;;;1.00;;
59587;SDS011;45412;54.472;18.464;2022-09-20T09:00:30;4.70;;;1.10;;
59587;SDS011;45412;54.472;18.464;2022-09-20T09:03:19;6.00;;;1.20;;
59587;SDS011;45412;54.472;18.464;2022-09-20T09:06:10;6.40;;;0.90;;
59587;SDS011;45412;54.472;18.464;2022-09-20T09:09:04;5.80;;;1.10;;
59587;SDS011;45412;54.472;18.464;2022-09-20T09:11:54;4.40;;;0.90;;
59587;SDS011;45412;54.472;18.464;2022-09-20T09:14:44;4.60;;;1.00;;
59587;SDS011;45412;54.472;18.464;2022-09-20T09:17:35;4.40;;;0.90;;
59587;SDS011;45412;54.472;18.464;2022-09-20T09:20:23;4.10;;;0.90;;
59587;SDS011;45412;54.472;18.464;2022-09-20T09:23:25;5.70;;;1.10;;
59587;SDS011;45412;54.472;18.464;2022-09-20T09:26:17;7.30;;;1.10;;
59587;SDS011;45412;54.472;18.464;2022-09-20T09:29:18;4.30;;;0.80;;
59587;SDS011;45412;54.472;18.464;2022-09-20T09:32:23;4.40;;;0.70;;
59587;SDS011;45412;54.472;18.464;2022-09-20T09:35:28;4.60;;;0.70;;
59587;SDS011;45412;54.472;18.464;2022-09-20T09:38:28;4.00;;;0.70;;
59587;SDS011;45412;54.472;18.464;2022-09-20T09:41:24;3.40;;;0.70;;
59587;SDS011;45412;54.472;18.464;2022-09-20T09:44:29;3.80;;;0.80;;
59587;SDS011;45412;54.472;18.464;2022-09-20T09:47:25;4.30;;;0.70;;
59587;SDS011;45412;54.472;18.464;2022-09-20T09:50:30;3.30;;;0.80;;
59587;SDS011;45412;54.472;18.464;2022-09-20T09:53:23;5.10;;;1.10;;
59587;SDS011;45412;54.472;18.464;2022-09-20T10:03:30;4.10;;;1.00;;
59587;SDS011;45412;54.472;18.464;2022-09-20T10:06:30;5.40;;;1.00;;
59587;SDS011;45412;54.472;18.464;2022-09-20T10:09:34;4.20;;;0.80;;
59587;SDS011;45412;54.472;18.464;2022-09-20T10:19:42;4.30;;;0.90;;
59587;SDS011;45412;54.472;18.464;2022-09-20T10:22:46;4.80;;;1.00;;
59587;SDS011;45412;54.472;18.464;2022-09-20T10:26:45;5.80;;;1.10;;
59587;SDS011;45412;54.472;18.464;2022-09-20T10:36:55;6.70;;;1.50;;
59587;SDS011;45412;54.472;18.464;2022-09-20T10:39:45;5.10;;;1.30;;
59587;SDS011;45412;54.472;18.464;2022-09-20T10:42:48;3.80;;;1.00;;
59587;SDS011;45412;54.472;18.464;2022-09-20T10:49:20;6.60;;;1.00;;
59587;SDS011;45412;54.472;18.464;2022-09-20T10:52:52;4.70;;;0.80;;
59587;SDS011;45412;54.472;18.464;2022-09-20T11:09:14;4.70;;;1.00;;
59587;SDS011;45412;54.472;18.464;2022-09-20T11:12:26;4.50;;;0.90;;
59587;SDS011;45412;54.472;18.464;2022-09-20T11:15:46;5.20;;;0.90;;
59587;SDS011;45412;54.472;18.464;2022-09-20T11:21:48;4.90;;;0.80;;
59587;SDS011;45412;54.472;18.464;2022-09-20T11:24:44;3.90;;;0.90;;
59587;SDS011;45412;54.472;18.464;2022-09-20T11:27:46;5.70;;;1.10;;
59587;SDS011;45412;54.472;18.464;2022-09-20T11:34:27;10.10;;;1.50;;
59587;SDS011;45412;54.472;18.464;2022-09-20T11:37:18;5.80;;;1.30;;
59587;SDS011;45412;54.472;18.464;2022-09-20T11:43:21;4.30;;;1.00;;
59587;SDS011;45412;54.472;18.464;2022-09-20T11:46:18;4.60;;;0.90;;
59587;SDS011;45412;54.472;18.464;2022-09-20T11:49:14;5.10;;;0.90;;
59587;SDS011;45412;54.472;18.464;2022-09-20T11:58:44;7.40;;;1.30;;
59587;SDS011;45412;54.472;18.464;2022-09-20T12:01:38;5.00;;;1.10;;
59587;SDS011;45412;54.472;18.464;2022-09-20T12:04:32;5.10;;;1.10;;
59587;SDS011;45412;54.472;18.464;2022-09-20T12:07:30;5.30;;;1.30;;
59587;SDS011;45412;54.472;18.464;2022-09-20T12:10:30;5.00;;;1.40;;
59587;SDS011;45412;54.472;18.464;2022-09-20T12:13:23;5.60;;;1.30;;
59587;SDS011;45412;54.472;18.464;2022-09-20T12:16:15;5.90;;;1.30;;
59587;SDS011;45412;54.472;18.464;2022-09-20T12:22:27;5.20;;;1.30;;
59587;SDS011;45412;54.472;18.464;2022-09-20T12:25:37;6.20;;;1.50;;
59587;SDS011;45412;54.472;18.464;2022-09-20T12:28:33;5.50;;;1.60;;
59587;SDS011;45412;54.472;18.464;2022-09-20T12:39:52;7.90;;;1.60;;
59587;SDS011;45412;54.472;18.464;2022-09-20T12:42:41;5.50;;;1.60;;
59587;SDS011;45412;54.472;18.464;2022-09-20T12:45:29;5.50;;;1.50;;
59587;SDS011;45412;54.472;18.464;2022-09-20T12:48:17;5.40;;;1.60;;
59587;SDS011;45412;54.472;18.464;2022-09-20T12:51:18;6.90;;;1.50;;
59587;SDS011;45412;54.472;18.464;2022-09-20T12:54:49;6.00;;;1.80;;
59587;SDS011;45412;54.472;18.464;2022-09-20T12:57:39;4.90;;;1.10;;
59587;SDS011;45412;54.472;18.464;2022-09-20T13:03:44;6.40;;;1.10;;
59587;SDS011;45412;54.472;18.464;2022-09-20T13:06:34;4.60;;;1.20;;
59587;SDS011;45412;54.472;18.464;2022-09-20T13:09:24;4.50;;;0.90;;
59587;SDS011;45412;54.472;18.464;2022-09-20T13:12:13;5.50;;;1.10;;
59587;SDS011;45412;54.472;18.464;2022-09-20T13:15:03;4.70;;;1.00;;
59587;SDS011;45412;54.472;18.464;2022-09-20T13:17:54;4.80;;;1.20;;
59587;SDS011;45412;54.472;18.464;2022-09-20T13:20:45;4.60;;;1.30;;
59587;SDS011;45412;54.472;18.464;2022-09-20T13:23:42;5.20;;;1.40;;
59587;SDS011;45412;54.472;18.464;2022-09-20T13:26:40;4.60;;;1.20;;
59587;SDS011;45412;54.472;18.464;2022-09-20T13:29:39;5.50;;;1.40;;
59587;SDS011;45412;54.472;18.464;2022-09-20T13:32:30;5.00;;;1.30;;
59587;SDS011;45412;54.472;18.464;2022-09-20T13:35:25;4.80;;;1.20;;
59587;SDS011;45412;54.472;18.464;2022-09-20T13:38:18;7.60;;;2.20;;
59587;SDS011;45412;54.472;18.464;2022-09-20T13:41:10;6.80;;;1.90;;
59587;SDS011;45412;54.472;18.464;2022-09-20T13:43:58;5.40;;;1.40;;
59587;SDS011;45412;54.472;18.464;2022-09-20T13:46:47;5.50;;;1.40;;
59587;SDS011;45412;54.472;18.464;2022-09-20T13:49:34;5.40;;;1.40;;
59587;SDS011;45412;54.472;18.464;2022-09-20T13:52:30;4.80;;;1.40;;
59587;SDS011;45412;54.472;18.464;2022-09-20T13:55:31;6.30;;;1.50;;
59587;SDS011;45412;54.472;18.464;2022-09-20T13:58:32;5.80;;;1.70;;
59587;SDS011;45412;54.472;18.464;2022-09-20T14:01:28;6.70;;;1.70;;
59587;SDS011;45412;54.472;18.464;2022-09-20T14:04:23;6.10;;;1.30;;
59587;SDS011;45412;54.472;18.464;2022-09-20T14:07:13;5.80;;;1.50;;
59587;SDS011;45412;54.472;18.464;2022-09-20T14:10:05;7.30;;;1.90;;
59587;SDS011;45412;54.472;18.464;2022-09-20T14:13:20;6.50;;;1.70;;
59587;SDS011;45412;54.472;18.464;2022-09-20T14:16:08;8.50;;;1.80;;
59587;SDS011;45412;54.472;18.464;2022-09-20T14:18:57;5.90;;;1.50;;
59587;SDS011;45412;54.472;18.464;2022-09-20T14:21:47;5.60;;;1.40;;
59587;SDS011;45412;54.472;18.464;2022-09-20T14:24:36;5.40;;;1.40;;
59587;SDS011;45412;54.472;18.464;2022-09-20T14:27:23;6.00;;;1.60;;
59587;SDS011;45412;54.472;18.464;2022-09-20T14:30:29;5.90;;;1.50;;
59587;SDS011;45412;54.472;18.464;2022-09-20T14:33:19;6.10;;;1.60;;
59587;SDS011;45412;54.472;18.464;2022-09-20T14:36:15;5.20;;;1.20;;
59587;SDS011;45412;54.472;18.464;2022-09-20T14:39:13;6.70;;;1.60;;
59587;SDS011;45412;54.472;18.464;2022-09-20T14:42:19;7.10;;;1.50;;
59587;SDS011;45412;54.472;18.464;2022-09-20T14:56:57;8.60;;;1.80;;
59587;SDS011;45412;54.472;18.464;2022-09-20T14:59:45;7.20;;;2.20;;
59587;SDS011;45412;54.472;18.464;2022-09-20T15:02:42;6.40;;;1.90;;
59587;SDS011;45412;54.472;18.464;2022-09-20T15:05:31;8.30;;;2.10;;
59587;SDS011;45412;54.472;18.464;2022-09-20T15:08:20;6.50;;;1.90;;
59587;SDS011;45412;54.472;18.464;2022-09-20T15:11:13;8.30;;;2.00;;
59587;SDS011;45412;54.472;18.464;2022-09-20T15:14:11;7.10;;;2.20;;
59587;SDS011;45412;54.472;18.464;2022-09-20T15:17:04;6.90;;;1.90;;
59587;SDS011;45412;54.472;18.464;2022-09-20T15:19:53;10.70;;;3.40;;
59587;SDS011;45412;54.472;18.464;2022-09-20T15:22:40;15.00;;;4.80;;
59587;SDS011;45412;54.472;18.464;2022-09-20T15:25:32;10.30;;;3.70;;
59587;SDS011;45412;54.472;18.464;2022-09-20T15:28:21;9.00;;;3.10;;
59587;SDS011;45412;54.472;18.464;2022-09-20T15:31:09;8.60;;;3.30;;
59587;SDS011;45412;54.472;18.464;2022-09-20T15:33:59;7.10;;;2.70;;
59587;SDS011;45412;54.472;18.464;2022-09-20T15:36:50;8.60;;;2.70;;
59587;SDS011;45412;54.472;18.464;2022-09-20T15:39:42;7.80;;;2.60;;
59587;SDS011;45412;54.472;18.464;2022-09-20T15:42:34;8.60;;;3.80;;
59587;SDS011;45412;54.472;18.464;2022-09-20T15:45:25;9.20;;;3.70;;
59587;SDS011;45412;54.472;18.464;2022-09-20T15:48:15;10.00;;;4.50;;
59587;SDS011;45412;54.472;18.464;2022-09-20T15:51:09;11.40;;;5.40;;
59587;SDS011;45412;54.472;18.464;2022-09-20T15:54:01;10.80;;;4.10;;
59587;SDS011;45412;54.472;18.464;2022-09-20T15:56:55;10.90;;;4.30;;
59587;SDS011;45412;54.472;18.464;2022-09-20T15:59:44;9.50;;;4.00;;
59587;SDS011;45412;54.472;18.464;2022-09-20T16:02:36;9.90;;;3.60;;
59587;SDS011;45412;54.472;18.464;2022-09-20T16:05:25;9.50;;;4.00;;
59587;SDS011;45412;54.472;18.464;2022-09-20T16:08:17;9.20;;;3.80;;
59587;SDS011;45412;54.472;18.464;2022-09-20T16:11:14;11.70;;;3.80;;
59587;SDS011;45412;54.472;18.464;2022-09-20T16:14:08;9.30;;;3.90;;
59587;SDS011;45412;54.472;18.464;2022-09-20T16:16:56;9.60;;;3.70;;
59587;SDS011;45412;54.472;18.464;2022-09-20T16:19:48;8.50;;;3.80;;
59587;SDS011;45412;54.472;18.464;2022-09-20T16:22:39;12.30;;;3.80;;
59587;SDS011;45412;54.472;18.464;2022-09-20T16:25:27;9.20;;;3.30;;
59587;SDS011;45412;54.472;18.464;2022-09-20T16:28:16;10.30;;;3.20;;
59587;SDS011;45412;54.472;18.464;2022-09-20T16:31:04;8.50;;;3.60;;
59587;SDS011;45412;54.472;18.464;2022-09-20T16:33:54;9.50;;;4.00;;
59587;SDS011;45412;54.472;18.464;2022-09-20T16:36:52;9.70;;;4.00;;
59587;SDS011;45412;54.472;18.464;2022-09-20T16:39:58;8.80;;;3.90;;
59587;SDS011;45412;54.472;18.464;2022-09-20T16:42:47;9.40;;;4.10;;
59587;SDS011;45412;54.472;18.464;2022-09-20T16:45:39;9.00;;;4.20;;
59587;SDS011;45412;54.472;18.464;2022-09-20T16:48:31;9.80;;;4.30;;
59587;SDS011;45412;54.472;18.464;2022-09-20T16:51:34;9.80;;;4.20;;
59587;SDS011;45412;54.472;18.464;2022-09-20T16:54:23;12.50;;;4.30;;
59587;SDS011;45412;54.472;18.464;2022-09-20T16:57:18;11.00;;;5.30;;
59587;SDS011;45412;54.472;18.464;2022-09-20T17:00:08;9.30;;;4.30;;
59587;SDS011;45412;54.472;18.464;2022-09-20T17:03:07;13.40;;;5.10;;
59587;SDS011;45412;54.472;18.464;2022-09-20T17:06:08;10.50;;;4.80;;
59587;SDS011;45412;54.472;18.464;2022-09-20T17:09:05;12.00;;;4.90;;
59587;SDS011;45412;54.472;18.464;2022-09-20T17:12:06;12.00;;;4.40;;
59587;SDS011;45412;54.472;18.464;2022-09-20T17:15:40;8.30;;;3.30;;
59587;SDS011;45412;54.472;18.464;2022-09-20T17:18:30;9.30;;;3.80;;
59587;SDS011;45412;54.472;18.464;2022-09-20T17:21:20;9.50;;;3.40;;
59587;SDS011;45412;54.472;18.464;2022-09-20T17:24:13;10.30;;;3.70;;
59587;SDS011;45412;54.472;18.464;2022-09-20T17:27:02;10.10;;;3.70;;
59587;SDS011;45412;54.472;18.464;2022-09-20T17:29:51;9.20;;;3.60;;
59587;SDS011;45412;54.472;18.464;2022-09-20T17:32:43;8.70;;;3.60;;
59587;SDS011;45412;54.472;18.464;2022-09-20T17:35:34;8.60;;;3.50;;
59587;SDS011;45412;54.472;18.464;2022-09-20T17:38:22;9.60;;;3.70;;
59587;SDS011;45412;54.472;18.464;2022-09-20T17:41:14;10.10;;;4.10;;
59587;SDS011;45412;54.472;18.464;2022-09-20T17:44:03;10.10;;;4.40;;
59587;SDS011;45412;54.472;18.464;2022-09-20T17:46:56;15.70;;;6.00;;
59587;SDS011;45412;54.472;18.464;2022-09-20T17:49:44;14.00;;;5.70;;
59587;SDS011;45412;54.472;18.464;2022-09-20T17:52:32;13.20;;;6.00;;
59587;SDS011;45412;54.472;18.464;2022-09-20T17:55:21;10.80;;;4.70;;
59587;SDS011;45412;54.472;18.464;2022-09-20T17:58:09;10.20;;;4.30;;
59587;SDS011;45412;54.472;18.464;2022-09-20T18:01:05;9.00;;;3.40;;
59587;SDS011;45412;54.472;18.464;2022-09-20T18:04:15;7.90;;;2.90;;
59587;SDS011;45412;54.472;18.464;2022-09-20T18:07:41;7.70;;;3.00;;
59587;SDS011;45412;54.472;18.464;2022-09-20T18:10:56;8.60;;;3.10;;
59587;SDS011;45412;54.472;18.464;2022-09-20T18:13:45;7.40;;;2.60;;
59587;SDS011;45412;54.472;18.464;2022-09-20T18:16:34;7.60;;;2.30;;
59587;SDS011;45412;54.472;18.464;2022-09-20T18:19:23;7.00;;;2.10;;
59587;SDS011;45412;54.472;18.464;2022-09-20T18:22:11;7.90;;;2.20;;
59587;SDS011;45412;54.472;18.464;2022-09-20T18:24:59;6.10;;;1.90;;
59587;SDS011;45412;54.472;18.464;2022-09-20T18:27:49;27.00;;;10.90;;
59587;SDS011;45412;54.472;18.464;2022-09-20T18:30:37;26.10;;;11.90;;
59587;SDS011;45412;54.472;18.464;2022-09-20T18:33:27;22.60;;;10.20;;
59587;SDS011;45412;54.472;18.464;2022-09-20T18:36:18;15.20;;;4.80;;
59587;SDS011;45412;54.472;18.464;2022-09-20T18:39:08;11.40;;;3.40;;
59587;SDS011;45412;54.472;18.464;2022-09-20T18:41:56;10.40;;;4.10;;
59587;SDS011;45412;54.472;18.464;2022-09-20T18:44:44;9.70;;;3.50;;
59587;SDS011;45412;54.472;18.464;2022-09-20T18:47:33;11.30;;;3.60;;
59587;SDS011;45412;54.472;18.464;2022-09-20T18:50:21;9.50;;;3.90;;
59587;SDS011;45412;54.472;18.464;2022-09-20T18:53:10;9.90;;;3.90;;
59587;SDS011;45412;54.472;18.464;2022-09-20T18:56:21;9.40;;;3.60;;
59587;SDS011;45412;54.472;18.464;2022-09-20T18:59:16;10.80;;;4.10;;
59587;SDS011;45412;54.472;18.464;2022-09-20T19:05:50;8.70;;;3.00;;
59587;SDS011;45412;54.472;18.464;2022-09-20T19:09:18;9.50;;;3.40;;
59587;SDS011;45412;54.472;18.464;2022-09-20T19:19:16;9.50;;;3.00;;
59587;SDS011;45412;54.472;18.464;2022-09-20T19:22:25;8.30;;;3.20;;
59587;SDS011;45412;54.472;18.464;2022-09-20T19:25:36;11.30;;;4.80;;
59587;SDS011;45412;54.472;18.464;2022-09-20T19:28:30;9.40;;;4.20;;
59587;SDS011;45412;54.472;18.464;2022-09-20T19:31:47;9.10;;;3.30;;
59587;SDS011;45412;54.472;18.464;2022-09-20T19:34:36;10.20;;;3.60;;
59587;SDS011;45412;54.472;18.464;2022-09-20T19:41:04;9.20;;;2.30;;
59587;SDS011;45412;54.472;18.464;2022-09-20T19:44:54;8.60;;;2.40;;
59587;SDS011;45412;54.472;18.464;2022-09-20T19:47:59;8.60;;;2.40;;
59587;SDS011;45412;54.472;18.464;2022-09-20T19:50:52;7.90;;;2.30;;
59587;SDS011;45412;54.472;18.464;2022-09-20T19:53:41;8.80;;;2.50;;
59587;SDS011;45412;54.472;18.464;2022-09-20T19:56:58;8.70;;;2.40;;
59587;SDS011;45412;54.472;18.464;2022-09-20T19:59:51;8.30;;;1.90;;
59587;SDS011;45412;54.472;18.464;2022-09-20T20:02:43;6.50;;;1.80;;
59587;SDS011;45412;54.472;18.464;2022-09-20T20:05:34;7.80;;;1.60;;
59587;SDS011;45412;54.472;18.464;2022-09-20T20:08:35;6.20;;;1.80;;
59587;SDS011;45412;54.472;18.464;2022-09-20T20:24:52;11.20;;;2.20;;
59587;SDS011;45412;54.472;18.464;2022-09-20T20:27:40;8.50;;;2.40;;
59587;SDS011;45412;54.472;18.464;2022-09-20T20:30:29;6.60;;;2.30;;
59587;SDS011;45412;54.472;18.464;2022-09-20T20:33:17;8.00;;;2.30;;
59587;SDS011;45412;54.472;18.464;2022-09-20T20:36:05;7.70;;;2.00;;
59587;SDS011;45412;54.472;18.464;2022-09-20T20:38:58;8.50;;;2.20;;
59587;SDS011;45412;54.472;18.464;2022-09-20T20:41:45;10.50;;;2.50;;
59587;SDS011;45412;54.472;18.464;2022-09-20T20:44:49;7.60;;;2.50;;
59587;SDS011;45412;54.472;18.464;2022-09-20T20:47:37;8.50;;;2.50;;
59587;SDS011;45412;54.472;18.464;2022-09-20T20:50:27;9.90;;;2.60;;
59587;SDS011;45412;54.472;18.464;2022-09-20T20:53:16;8.30;;;2.20;;
59587;SDS011;45412;54.472;18.464;2022-09-20T20:56:05;8.10;;;2.60;;
59587;SDS011;45412;54.472;18.464;2022-09-20T20:58:56;7.00;;;1.60;;
59587;SDS011;45412;54.472;18.464;2022-09-20T21:01:47;8.60;;;2.30;;
59587;SDS011;45412;54.472;18.464;2022-09-20T21:04:38;6.50;;;2.00;;
59587;SDS011;45412;54.472;18.464;2022-09-20T21:07:27;8.60;;;2.90;;
59587;SDS011;45412;54.472;18.464;2022-09-20T21:10:16;8.50;;;2.80;;
59587;SDS011;45412;54.472;18.464;2022-09-20T21:13:09;7.30;;;2.40;;
59587;SDS011;45412;54.472;18.464;2022-09-20T21:16:15;6.60;;;2.10;;
59587;SDS011;45412;54.472;18.464;2022-09-20T21:19:05;9.00;;;2.40;;
59587;SDS011;45412;54.472;18.464;2022-09-20T21:21:53;8.30;;;2.00;;
59587;SDS011;45412;54.472;18.464;2022-09-20T21:24:43;7.80;;;2.30;;
59587;SDS011;45412;54.472;18.464;2022-09-20T21:27:32;7.90;;;1.70;;
59587;SDS011;45412;54.472;18.464;2022-09-20T21:30:23;7.10;;;1.80;;
59587;SDS011;45412;54.472;18.464;2022-09-20T21:33:11;6.90;;;1.90;;
59587;SDS011;45412;54.472;18.464;2022-09-20T21:35:59;5.80;;;1.60;;
59587;SDS011;45412;54.472;18.464;2022-09-20T21:38:48;6.40;;;1.80;;
59587;SDS011;45412;54.472;18.464;2022-09-20T21:41:37;9.00;;;1.80;;
59587;SDS011;45412;54.472;18.464;2022-09-20T21:44:27;5.80;;;1.70;;
59587;SDS011;45412;54.472;18.464;2022-09-20T21:47:16;7.90;;;1.80;;
59587;SDS011;45412;54.472;18.464;2022-09-20T21:50:07;6.90;;;1.60;;
59587;SDS011;45412;54.472;18.464;2022-09-20T21:52:55;5.70;;;1.40;;
59587;SDS011;45412;54.472;18.464;2022-09-20T21:55:43;6.70;;;1.40;;
59587;SDS011;45412;54.472;18.464;2022-09-20T21:58:32;7.10;;;1.50;;
59587;SDS011;45412;54.472;18.464;2022-09-20T22:01:30;6.90;;;1.90;;
59587;SDS011;45412;54.472;18.464;2022-09-20T22:04:24;10.30;;;2.50;;
59587;SDS011;45412;54.472;18.464;2022-09-20T22:07:18;8.60;;;2.30;;
59587;SDS011;45412;54.472;18.464;2022-09-20T22:10:10;10.30;;;3.00;;
59587;SDS011;45412;54.472;18.464;2022-09-20T22:13:01;9.50;;;2.60;;
59587;SDS011;45412;54.472;18.464;2022-09-20T22:15:49;9.30;;;2.00;;
59587;SDS011;45412;54.472;18.464;2022-09-20T22:18:42;8.50;;;2.10;;